NCAR-RAP Real-Time Weather Data

Output produced by METARs form (23 June 2018  19:26 UTC)
found at http://weather.rap.ucar.edu/surface/
 
RJOW 231000Z 13005KT 9999 FEW009 SCT035 BKN060 20/18 Q1004
RJOW 230900Z 12004KT 050V160 9999 FEW009 SCT025 BKN050 21/18 Q1004
RJOW 230800Z 16003KT 120V200 9999 FEW015 SCT025 BKN040 22/18 Q1004
RJOW 230700Z 29006KT 9999 FEW020 SCT030 BKN080 22/18 Q1004
RJOW 230600Z 29009KT 9999 FEW015 SCT030 BKN070 22/19 Q1004
RJOW 230500Z 30008KT 9999 FEW015 SCT070 BKN/// 23/19 Q1004
RJOW 230400Z 31007KT 9999 FEW015 BKN120 24/19 Q1004
RJOW 230300Z 19003KT 130V270 9999 -RA FEW020 SCT090 BKN100 23/20 Q1004
RJOW 230200Z 29005KT 9999 -RA FEW020 SCT090 BKN110 23/20 Q1005
RJOW 230100Z 29004KT 9999 -RA FEW020 SCT100 BKN120 22/20 Q1005
RJOW 230000Z 36003KT 320V040 9999 -RA NSC 22/19 Q1005
RJOW 222300Z 23003KT 210V270 CAVOK 23/18 Q1005
RJOW 221000Z 35002KT 9999 FEW035 BKN/// 22/20 Q1008
RJOW 220900Z VRB01KT 9999 FEW035 BKN/// 23/20 Q1008
RJOW 220800Z 01003KT 320V050 9999 FEW030 BKN/// 23/19 Q1008
RJOW 220700Z 36004KT 330V040 9999 FEW015 SCT150 BKN/// 24/21 Q1008
RJOW 220600Z 01005KT 320V060 9999 FEW030 BKN/// 24/21 Q1008
RJOW 220500Z 32006KT 9999 FEW030 BKN/// 24/20 Q1008
RJOW 220400Z 33005KT 300V030 9999 FEW040 BKN/// 25/18 Q1008
RJOW 220300Z 31005KT 280V350 9999 FEW040 BKN/// 25/17 Q1009
RJOW 220200Z 31006KT 9999 FEW040 BKN/// 25/14 Q1010
RJOW 220100Z 19005KT 9999 FEW040 BKN/// 25/16 Q1010
RJOW 220000Z 16006KT CAVOK 22/16 Q1010
RJOW 212300Z 16009KT 9999 FEW050 BKN/// 20/15 Q1010
RJOW 211000Z 01003KT 340V060 9999 FEW025 SCT/// 22/20 Q1007
RJOW 210900Z 34003KT 300V050 9999 FEW020 23/21 Q1007
RJOW 210800Z 31005KT 9999 FEW020 23/21 Q1006